Time;durP1;ratioP1;P1;durP2;ratioP2;P2;SDS_P1;SDS_P2;PMS_P1;PMS_P2;Temp;Humidity;BMP_temperature;BMP_pressure;BME280_temperature;BME280_humidity;BME280_pressure;Samples;Min_cycle;Max_cycle;Signal;HPM_P1;HPM_P2
2023/07/28 00:01:29;;;;;;;6.75;1.70;;;16.10;79.20;;;;;;4945321;28;20035;-69
2023/07/28 00:03:57;;;;;;;5.95;1.60;;;16.70;74.80;;;;;;4944614;28;20059;-69
2023/07/28 00:06:25;;;;;;;6.28;2.58;;;16.70;75.30;;;;;;4948375;28;20070;-69
2023/07/28 00:08:52;;;;;;;4.88;1.67;;;16.70;74.50;;;;;;4945445;28;20078;-69
2023/07/28 00:11:20;;;;;;;6.07;1.80;;;16.70;74.70;;;;;;4947957;28;20066;-69
2023/07/28 00:13:47;;;;;;;4.70;1.50;;;16.90;75.60;;;;;;4944816;28;20044;-70
2023/07/28 00:16:15;;;;;;;5.50;1.63;;;17.30;73.30;;;;;;4943857;28;20030;-70
2023/07/28 00:18:42;;;;;;;2.92;1.27;;;17.80;70.70;;;;;;4947059;28;20031;-70
2023/07/28 00:21:10;;;;;;;3.63;1.60;;;18.10;69.00;;;;;;4942727;28;20070;-69
2023/07/28 00:23:37;;;;;;;8.65;1.70;;;18.20;66.90;;;;;;4953918;28;20031;-70
2023/07/28 00:26:04;;;;;;;4.93;1.30;;;18.10;66.80;;;;;;4941790;28;20027;-69
2023/07/28 00:28:32;;;;;;;7.00;1.38;;;18.10;68.20;;;;;;4949320;28;20552;-69
2023/07/28 00:30:59;;;;;;;4.47;1.00;;;18.20;67.00;;;;;;4950421;28;20019;-70
2023/07/28 00:33:26;;;;;;;6.55;1.35;;;18.30;66.50;;;;;;4945336;28;20538;-71
2023/07/28 00:35:54;;;;;;;6.88;1.23;;;18.50;65.90;;;;;;4949647;28;20046;-70
2023/07/28 00:38:21;;;;;;;4.68;1.00;;;18.70;66.10;;;;;;4942804;28;21035;-70
2023/07/28 00:40:48;;;;;;;3.53;1.27;;;18.90;65.70;;;;;;4947758;28;20031;-71
2023/07/28 00:43:16;;;;;;;3.35;1.10;;;19.10;63.30;;;;;;4944503;28;20046;-70
2023/07/28 00:45:44;;;;;;;2.63;0.90;;;19.20;64.10;;;;;;4951701;28;20058;-71
2023/07/28 00:48:14;;;;;;;4.50;1.10;;;19.30;61.80;;;;;;4949842;28;20111;-70
2023/07/28 00:50:45;;;;;;;4.93;1.35;;;20.00;60.60;;;;;;4954993;28;20085;-68
2023/07/28 00:53:12;;;;;;;3.38;1.00;;;21.30;56.70;;;;;;4939325;28;20110;-69
2023/07/28 00:55:41;;;;;;;4.57;1.10;;;22.30;53.80;;;;;;4951604;28;20491;-69
2023/07/28 00:58:09;;;;;;;4.20;1.10;;;23.00;51.30;;;;;;4946235;28;20065;-70
2023/07/28 01:00:37;;;;;;;7.80;1.05;;;23.80;51.00;;;;;;4948907;28;20142;-70
2023/07/28 01:03:05;;;;;;;6.35;1.15;;;24.30;48.40;;;;;;4948851;28;20029;-71
2023/07/28 01:06:02;;;;;;;5.38;1.17;;;24.70;46.20;;;;;;4951120;28;20054;-70
2023/07/28 01:08:42;;;;;;;3.00;1.00;;;25.20;45.10;;;;;;4949622;28;20035;-71
2023/07/28 01:11:10;;;;;;;2.85;0.80;;;25.40;44.50;;;;;;4933608;28;20057;-69
2023/07/28 01:13:37;;;;;;;3.47;0.95;;;25.70;45.30;;;;;;4940197;28;20043;-70
2023/07/28 01:16:06;;;;;;;4.25;1.17;;;25.90;43.80;;;;;;4950247;28;20114;-70
2023/07/28 01:18:34;;;;;;;4.18;0.90;;;25.90;43.40;;;;;;4942906;28;20035;-70
2023/07/28 01:21:06;;;;;;;4.20;0.90;;;25.40;43.10;;;;;;4947264;28;20104;-70
2023/07/28 01:23:44;;;;;;;3.67;0.80;;;25.20;44.10;;;;;;4941645;28;20432;-70
2023/07/28 01:26:15;;;;;;;1.38;0.85;;;25.90;43.00;;;;;;4942617;28;20039;-68
2023/07/28 01:28:43;;;;;;;3.35;0.95;;;26.60;40.80;;;;;;4950342;28;20110;-69
2023/07/28 01:31:11;;;;;;;3.20;1.10;;;26.10;41.70;;;;;;4948580;28;20080;-69
2023/07/28 01:33:38;;;;;;;3.65;1.10;;;26.40;43.60;;;;;;4939748;28;20066;-68
2023/07/28 01:36:05;;;;;;;3.95;0.77;;;27.10;41.70;;;;;;4955564;28;20031;-69
2023/07/28 01:38:33;;;;;;;1.77;1.02;;;27.00;39.80;;;;;;4941425;28;20039;-68
2023/07/28 01:41:00;;;;;;;3.15;1.52;;;27.00;39.90;;;;;;4946670;28;20031;-68
2023/07/28 01:43:27;;;;;;;6.03;0.80;;;26.60;40.30;;;;;;4941232;28;20385;-68
2023/07/28 01:45:55;;;;;;;2.63;0.90;;;26.50;40.80;;;;;;4948560;28;20035;-69
2023/07/28 01:48:22;;;;;;;3.45;0.88;;;26.30;40.50;;;;;;4948603;28;20035;-69
2023/07/28 01:50:49;;;;;;;9.50;1.05;;;26.30;40.60;;;;;;4953358;28;20066;-69
2023/07/28 01:53:17;;;;;;;3.03;0.70;;;26.60;40.90;;;;;;4948949;28;20042;-68
2023/07/28 01:55:44;;;;;;;2.25;0.68;;;26.90;41.20;;;;;;4948654;28;20032;-68
2023/07/28 01:58:11;;;;;;;4.25;0.95;;;27.00;40.40;;;;;;4951892;28;20374;-68
2023/07/28 02:00:39;;;;;;;3.13;1.10;;;27.40;40.40;;;;;;4947951;28;20039;-68
2023/07/28 02:03:07;;;;;;;5.95;0.85;;;27.50;39.80;;;;;;4942537;28;20022;-69
2023/07/28 02:05:34;;;;;;;2.97;0.80;;;27.70;39.60;;;;;;4949724;28;20024;-68
2023/07/28 02:08:01;;;;;;;6.07;0.85;;;27.30;39.50;;;;;;4961970;28;20070;-67
2023/07/28 02:10:31;;;;;;;3.63;0.85;;;27.70;39.00;;;;;;4950260;28;20063;-67
2023/07/28 02:12:58;;;;;;;2.70;0.90;;;27.60;38.40;;;;;;4925809;28;20101;-68
2023/07/28 02:15:25;;;;;;;3.80;0.85;;;27.20;39.00;;;;;;4947901;28;20424;-67
2023/07/28 02:17:53;;;;;;;6.85;1.00;;;26.90;39.40;;;;;;4949586;28;20049;-68
2023/07/28 02:20:20;;;;;;;2.65;0.43;;;26.60;39.10;;;;;;4943727;28;20536;-70
2023/07/28 02:22:47;;;;;;;1.77;0.90;;;26.60;39.20;;;;;;4946797;28;20034;-69
2023/07/28 02:25:15;;;;;;;2.67;0.60;;;26.80;39.20;;;;;;4954020;28;20035;-69
2023/07/28 02:27:42;;;;;;;2.00;0.57;;;27.10;38.30;;;;;;4948297;28;20055;-70
2023/07/28 02:30:10;;;;;;;1.35;0.52;;;27.50;38.30;;;;;;4944564;28;20035;-69
2023/07/28 02:32:39;;;;;;;2.97;0.60;;;27.60;37.50;;;;;;4951491;28;20035;-69
2023/07/28 02:35:10;;;;;;;2.22;0.70;;;27.30;37.90;;;;;;4947039;28;20094;-68
2023/07/28 02:37:37;;;;;;;5.30;0.70;;;27.20;38.50;;;;;;4933960;28;20035;-68
2023/07/28 02:40:05;;;;;;;4.60;0.77;;;27.10;38.20;;;;;;4951801;28;20035;-65
2023/07/28 02:42:35;;;;;;;1.38;0.55;;;27.20;37.90;;;;;;4950786;28;20061;-68
2023/07/28 02:45:03;;;;;;;5.25;0.60;;;26.70;38.60;;;;;;4950887;28;20079;-67
2023/07/28 02:47:30;;;;;;;2.03;0.70;;;26.20;39.00;;;;;;4946219;28;20032;-68
2023/07/28 02:49:58;;;;;;;7.63;0.90;;;25.90;39.20;;;;;;4951875;28;20125;-68
2023/07/28 02:52:25;;;;;;;3.58;0.70;;;25.30;39.90;;;;;;4948727;28;20023;-69
2023/07/28 02:54:53;;;;;;;2.65;0.40;;;25.50;40.40;;;;;;4950195;28;20138;-69
2023/07/28 02:57:20;;;;;;;4.35;0.70;;;25.30;40.60;;;;;;4954715;28;20065;-69
2023/07/28 02:59:47;;;;;;;1.75;0.45;;;25.60;40.00;;;;;;4953883;28;20042;-69
2023/07/28 03:02:15;;;;;;;1.70;0.68;;;25.90;40.80;;;;;;4950868;28;20035;-69
2023/07/28 03:04:42;;;;;;;2.60;0.40;;;26.30;39.50;;;;;;4952793;28;20043;-68
2023/07/28 03:07:09;;;;;;;2.63;0.60;;;26.40;39.20;;;;;;4952806;28;20055;-68
2023/07/28 03:09:37;;;;;;;1.20;0.63;;;26.70;39.00;;;;;;4956400;28;20042;-68
2023/07/28 03:12:05;;;;;;;3.20;0.50;;;26.80;39.00;;;;;;4948363;28;20485;-68
2023/07/28 03:14:33;;;;;;;1.02;0.45;;;26.60;39.20;;;;;;4953092;28;20539;-68
2023/07/28 03:17:00;;;;;;;1.95;0.70;;;26.40;38.60;;;;;;4954473;28;20015;-69
2023/07/28 03:19:28;;;;;;;3.42;0.63;;;26.50;39.30;;;;;;4948108;28;20066;-69
2023/07/28 03:21:55;;;;;;;2.35;0.77;;;26.70;39.50;;;;;;4946483;28;20035;-70
2023/07/28 03:24:22;;;;;;;1.20;0.47;;;26.90;39.90;;;;;;4954693;28;20054;-69
2023/07/28 03:26:50;;;;;;;2.60;0.52;;;27.00;38.90;;;;;;4952781;28;20034;-68
2023/07/28 03:29:18;;;;;;;2.95;0.60;;;27.10;38.50;;;;;;4950196;28;20057;-71
2023/07/28 03:31:46;;;;;;;2.15;0.50;;;26.60;39.20;;;;;;4951147;28;20035;-69
2023/07/28 03:34:13;;;;;;;2.45;0.60;;;26.50;40.50;;;;;;4947476;28;20073;-69
2023/07/28 03:36:40;;;;;;;2.30;0.40;;;26.40;40.50;;;;;;4938153;28;20058;-68
2023/07/28 03:39:08;;;;;;;4.13;0.77;;;25.90;40.30;;;;;;4947000;28;20051;-69
2023/07/28 03:41:35;;;;;;;0.95;0.50;;;25.50;40.40;;;;;;4942049;28;20115;-68
2023/07/28 03:44:03;;;;;;;3.10;0.88;;;25.30;41.20;;;;;;4946190;28;20500;-67
2023/07/28 03:46:30;;;;;;;2.97;0.50;;;25.10;42.80;;;;;;4945102;28;20023;-69
2023/07/28 03:48:58;;;;;;;1.83;0.38;;;24.90;42.70;;;;;;4946873;28;20057;-68
2023/07/28 03:51:25;;;;;;;2.05;0.70;;;24.90;42.40;;;;;;4943147;28;20034;-69
2023/07/28 03:53:53;;;;;;;3.95;0.68;;;24.80;42.50;;;;;;4947241;28;20086;-69
2023/07/28 03:56:20;;;;;;;5.25;0.73;;;24.70;42.70;;;;;;4948985;28;20094;-70
2023/07/28 03:58:47;;;;;;;3.80;1.00;;;24.60;43.30;;;;;;4951694;28;20047;-70
2023/07/28 04:01:15;;;;;;;2.00;0.70;;;24.50;43.00;;;;;;4948297;28;20098;-68
2023/07/28 04:03:42;;;;;;;3.65;0.90;;;24.60;43.30;;;;;;4952196;28;20031;-71
2023/07/28 04:06:12;;;;;;;1.95;0.68;;;24.70;43.60;;;;;;4955831;28;20019;-66
2023/07/28 04:08:42;;;;;;;2.47;0.65;;;24.90;42.70;;;;;;4949445;28;20123;-69
2023/07/28 04:11:10;;;;;;;1.98;0.65;;;24.90;43.00;;;;;;4951561;28;20358;-70
2023/07/28 04:13:37;;;;;;;2.45;0.73;;;25.20;41.70;;;;;;4948738;28;20038;-68
2023/07/28 04:16:05;;;;;;;2.55;0.82;;;25.10;42.50;;;;;;4952524;28;20474;-69
2023/07/28 04:18:32;;;;;;;4.25;0.77;;;25.00;42.70;;;;;;4950305;28;20544;-69
2023/07/28 04:20:59;;;;;;;3.22;0.60;;;25.00;42.40;;;;;;4951354;28;20477;-67
2023/07/28 04:23:27;;;;;;;2.65;0.80;;;24.90;42.00;;;;;;4950620;28;20428;-68
2023/07/28 04:25:54;;;;;;;2.92;0.60;;;24.60;42.90;;;;;;4952765;28;20027;-69
2023/07/28 04:28:24;;;;;;;2.35;0.95;;;24.40;43.60;;;;;;4951687;28;20114;-68
2023/07/28 04:30:51;;;;;;;4.50;0.90;;;24.20;43.20;;;;;;4953193;28;20653;-68
2023/07/28 04:33:19;;;;;;;3.92;0.70;;;24.00;43.80;;;;;;4949626;28;20038;-69
2023/07/28 04:35:46;;;;;;;2.05;0.70;;;23.80;43.90;;;;;;4956918;28;20039;-68
2023/07/28 04:38:13;;;;;;;2.47;0.80;;;23.70;44.50;;;;;;4953086;28;20031;-69
2023/07/28 04:40:40;;;;;;;3.15;0.88;;;23.60;44.60;;;;;;4953733;28;20535;-70
2023/07/28 04:43:08;;;;;;;2.33;0.60;;;23.50;45.10;;;;;;4950526;28;20050;-69
2023/07/28 04:45:35;;;;;;;2.22;0.70;;;23.50;45.50;;;;;;4950176;28;20027;-69
2023/07/28 04:48:03;;;;;;;2.70;0.70;;;23.80;44.70;;;;;;4952048;28;20023;-68
2023/07/28 04:50:32;;;;;;;3.50;0.73;;;23.90;44.20;;;;;;4951683;28;20051;-69
2023/07/28 04:52:59;;;;;;;3.08;0.47;;;24.10;44.40;;;;;;4950776;28;20023;-70
2023/07/28 04:55:27;;;;;;;2.45;0.60;;;24.10;44.10;;;;;;4958081;28;20477;-69
2023/07/28 04:57:55;;;;;;;4.07;1.13;;;23.90;44.50;;;;;;4951086;28;20148;-69
2023/07/28 05:00:23;;;;;;;4.50;0.80;;;23.90;44.60;;;;;;4955546;28;20111;-69
2023/07/28 05:02:50;;;;;;;4.15;0.88;;;23.90;44.30;;;;;;4949916;28;20567;-69
2023/07/28 05:05:18;;;;;;;6.57;0.90;;;24.00;43.90;;;;;;4949311;28;20110;-69
2023/07/28 05:07:45;;;;;;;3.38;0.73;;;23.90;44.40;;;;;;4951596;28;20086;-69
2023/07/28 05:10:12;;;;;;;2.38;0.80;;;23.80;44.70;;;;;;4950577;28;20031;-69
2023/07/28 05:12:40;;;;;;;1.80;0.60;;;23.60;45.00;;;;;;4952356;28;20079;-68
2023/07/28 05:15:10;;;;;;;2.97;0.55;;;23.60;45.10;;;;;;4950707;28;20437;-69
2023/07/28 05:17:38;;;;;;;4.07;0.70;;;23.50;45.40;;;;;;4950435;28;20031;-70
2023/07/28 05:20:06;;;;;;;3.75;0.68;;;23.40;45.50;;;;;;4950958;28;20039;-69
2023/07/28 05:22:33;;;;;;;2.70;0.50;;;23.30;45.70;;;;;;4949262;28;20111;-68
2023/07/28 05:25:01;;;;;;;3.80;0.55;;;23.20;45.70;;;;;;4951990;28;20034;-68
2023/07/28 05:27:28;;;;;;;3.75;0.55;;;23.10;45.60;;;;;;4948800;28;20519;-68
2023/07/28 05:29:55;;;;;;;1.70;0.40;;;23.20;45.40;;;;;;4952525;28;20031;-69
2023/07/28 05:32:23;;;;;;;2.45;0.60;;;23.00;45.50;;;;;;4948135;28;20027;-69
2023/07/28 05:34:50;;;;;;;1.65;0.50;;;22.90;46.00;;;;;;4951245;28;20023;-69
2023/07/28 05:37:18;;;;;;;3.10;0.68;;;22.90;46.00;;;;;;4949636;28;20046;-70
2023/07/28 05:39:45;;;;;;;3.10;0.73;;;22.80;46.20;;;;;;4949800;28;20050;-69
2023/07/28 05:42:12;;;;;;;2.25;0.57;;;22.70;46.50;;;;;;4947062;28;20063;-69
2023/07/28 05:44:39;;;;;;;2.90;0.70;;;22.70;46.70;;;;;;4952565;28;20440;-69
2023/07/28 05:47:07;;;;;;;2.22;0.80;;;22.60;46.90;;;;;;4948314;28;20042;-69
2023/07/28 05:49:35;;;;;;;2.42;0.57;;;22.60;47.00;;;;;;4951107;28;20046;-68
2023/07/28 05:52:02;;;;;;;2.72;0.85;;;22.60;46.80;;;;;;4946554;28;20027;-67
2023/07/28 05:54:30;;;;;;;1.25;0.55;;;22.50;47.10;;;;;;4953602;28;20034;-69
2023/07/28 05:56:57;;;;;;;5.35;0.77;;;22.40;47.50;;;;;;4950096;28;20047;-69
2023/07/28 05:59:24;;;;;;;2.33;0.75;;;22.40;47.20;;;;;;4949293;28;20109;-69
2023/07/28 06:01:52;;;;;;;3.55;0.80;;;22.40;47.20;;;;;;4948062;28;20063;-68
2023/07/28 06:04:20;;;;;;;2.45;1.10;;;22.50;46.60;;;;;;4951390;28;20065;-69
2023/07/28 06:06:47;;;;;;;1.13;0.60;;;22.50;47.20;;;;;;4945421;28;20479;-68
2023/07/28 06:09:14;;;;;;;1.27;0.55;;;22.50;46.90;;;;;;4950276;28;20041;-69
2023/07/28 06:11:42;;;;;;;2.13;0.70;;;22.40;46.70;;;;;;4940587;28;20644;-69
2023/07/28 06:14:09;;;;;;;1.38;0.63;;;22.30;47.00;;;;;;4950634;28;20106;-70
2023/07/28 06:16:37;;;;;;;2.20;1.35;;;22.20;47.10;;;;;;4949473;28;20046;-68
2023/07/28 06:19:04;;;;;;;2.00;0.40;;;22.20;47.10;;;;;;4948373;28;20528;-69
2023/07/28 06:21:31;;;;;;;2.53;0.60;;;22.10;47.00;;;;;;4948918;28;20031;-70
2023/07/28 06:23:59;;;;;;;1.00;0.57;;;22.00;47.40;;;;;;4949214;28;20365;-70
2023/07/28 06:26:26;;;;;;;2.22;0.57;;;21.90;47.70;;;;;;4953002;28;20534;-69
2023/07/28 06:28:53;;;;;;;1.92;0.60;;;21.90;47.80;;;;;;4920810;28;20047;-69
2023/07/28 06:31:21;;;;;;;1.25;0.60;;;21.80;48.00;;;;;;4943958;28;20031;-69
2023/07/28 06:33:48;;;;;;;1.40;0.40;;;21.80;48.00;;;;;;4948514;28;20038;-69
2023/07/28 06:36:17;;;;;;;2.42;0.60;;;21.70;48.30;;;;;;4948305;28;20086;-68
2023/07/28 06:38:48;;;;;;;3.53;0.50;;;21.70;48.00;;;;;;4946540;28;20114;-70
2023/07/28 06:41:15;;;;;;;1.60;0.40;;;21.60;48.50;;;;;;4933315;28;20055;-70
2023/07/28 06:43:42;;;;;;;1.70;0.70;;;21.50;48.70;;;;;;4946393;28;20038;-69
2023/07/28 06:46:10;;;;;;;1.02;0.45;;;21.50;49.10;;;;;;4949361;28;20023;-66
2023/07/28 06:48:38;;;;;;;1.63;0.50;;;21.40;49.20;;;;;;4952550;28;20093;-70
2023/07/28 06:51:06;;;;;;;2.33;0.63;;;21.40;49.00;;;;;;4950777;28;20059;-68
2023/07/28 06:53:34;;;;;;;1.48;0.60;;;21.40;49.30;;;;;;4944854;28;20392;-69
2023/07/28 06:56:01;;;;;;;1.52;0.55;;;21.20;49.80;;;;;;4961204;28;20046;-69
2023/07/28 06:58:29;;;;;;;1.92;0.40;;;21.30;49.50;;;;;;4943426;28;20117;-69
2023/07/28 07:00:56;;;;;;;4.75;0.88;;;21.20;49.70;;;;;;4948923;28;20024;-69
2023/07/28 07:03:24;;;;;;;0.45;0.40;;;21.20;49.80;;;;;;4949657;28;20019;-69
2023/07/28 07:05:51;;;;;;;1.17;0.47;;;21.00;50.30;;;;;;4943226;28;20031;-69
2023/07/28 07:08:19;;;;;;;1.92;0.50;;;20.90;50.70;;;;;;4946860;28;20031;-74
2023/07/28 07:10:50;;;;;;;1.92;0.47;;;20.90;50.50;;;;;;4948877;28;20023;-68
2023/07/28 07:13:18;;;;;;;1.92;0.55;;;20.90;50.60;;;;;;4947664;28;20094;-69
2023/07/28 07:15:46;;;;;;;1.65;0.40;;;20.80;50.80;;;;;;4948529;28;20039;-70
2023/07/28 07:18:13;;;;;;;1.05;0.50;;;20.70;51.00;;;;;;4969510;28;20038;-70
2023/07/28 07:20:41;;;;;;;3.33;0.80;;;20.70;51.00;;;;;;4956111;28;20023;-70
2023/07/28 07:23:08;;;;;;;1.30;0.57;;;20.60;51.20;;;;;;4950414;28;20114;-70
2023/07/28 07:25:36;;;;;;;3.97;0.60;;;20.50;51.60;;;;;;4955650;28;20035;-70
2023/07/28 07:28:03;;;;;;;3.70;0.55;;;20.40;52.10;;;;;;4955598;28;20058;-69
2023/07/28 07:30:36;;;;;;;4.03;0.80;;;20.30;52.60;;;;;;4959108;28;20026;-68
2023/07/28 07:33:04;;;;;;;2.60;0.80;;;20.10;52.80;;;;;;4951800;28;20082;-69
2023/07/28 07:35:31;;;;;;;2.20;0.82;;;19.90;52.90;;;;;;4957044;28;20038;-68
2023/07/28 07:37:58;;;;;;;3.33;1.50;;;20.00;53.30;;;;;;4954158;28;20532;-70
2023/07/28 07:40:26;;;;;;;1.52;1.00;;;20.10;52.80;;;;;;4955356;28;20039;-69
2023/07/28 07:42:53;;;;;;;1.98;0.60;;;19.90;53.00;;;;;;4952725;28;20027;-69
2023/07/28 07:45:20;;;;;;;1.38;0.60;;;19.80;53.40;;;;;;4953475;28;20370;-69
2023/07/28 07:47:48;;;;;;;1.17;0.70;;;19.70;53.80;;;;;;4952433;28;20035;-68
2023/07/28 07:50:15;;;;;;;2.55;0.82;;;19.50;54.30;;;;;;4951953;28;20390;-69
2023/07/28 07:52:42;;;;;;;2.67;0.98;;;19.40;54.70;;;;;;4950553;28;20495;-70
2023/07/28 07:55:13;;;;;;;2.85;0.68;;;19.20;54.80;;;;;;4953345;28;20085;-70
2023/07/28 07:57:42;;;;;;;1.35;0.70;;;19.10;56.10;;;;;;4954136;28;20055;-70
2023/07/28 08:00:10;;;;;;;1.83;1.00;;;19.00;56.80;;;;;;4951278;28;20479;-70
2023/07/28 08:02:38;;;;;;;1.85;1.00;;;18.70;57.30;;;;;;4951232;28;20399;-69
2023/07/28 08:05:05;;;;;;;5.03;1.48;;;18.70;57.30;;;;;;4954024;28;20031;-67
2023/07/28 08:07:34;;;;;;;2.78;1.20;;;18.60;57.80;;;;;;4954626;28;20039;-70
2023/07/28 08:10:01;;;;;;;10.43;2.42;;;18.60;58.30;;;;;;4956811;28;20035;-69
2023/07/28 08:12:28;;;;;;;4.45;1.75;;;18.40;58.40;;;;;;4949836;28;20102;-70
2023/07/28 08:14:56;;;;;;;6.70;3.22;;;18.30;59.50;;;;;;4950817;28;20035;-70
2023/07/28 08:17:23;;;;;;;11.23;3.33;;;18.20;59.60;;;;;;4943001;28;20152;-68
2023/07/28 08:19:50;;;;;;;14.38;4.15;;;18.10;60.10;;;;;;4946898;28;20037;-68
2023/07/28 08:22:18;;;;;;;11.50;3.38;;;17.90;60.30;;;;;;4951691;28;20034;-70
2023/07/28 08:24:45;;;;;;;7.25;2.95;;;17.70;61.00;;;;;;4948009;28;20121;-70
2023/07/28 08:27:12;;;;;;;7.78;3.45;;;17.60;61.80;;;;;;4951663;28;20069;-70
2023/07/28 08:29:40;;;;;;;9.70;3.72;;;17.50;62.50;;;;;;4950944;28;20027;-69
2023/07/28 08:32:08;;;;;;;7.47;3.38;;;17.70;61.70;;;;;;4949202;28;20496;-70
2023/07/28 08:34:35;;;;;;;10.13;3.75;;;17.50;61.70;;;;;;4945787;28;20034;-70
2023/07/28 08:37:02;;;;;;;8.25;2.85;;;17.50;62.90;;;;;;4950058;28;20125;-70
2023/07/28 08:39:30;;;;;;;6.57;2.70;;;17.50;62.70;;;;;;4956160;28;20049;-70
2023/07/28 08:42:04;;;;;;;6.72;2.33;;;17.40;63.20;;;;;;4947656;28;20536;-70
2023/07/28 08:44:33;;;;;;;6.20;3.22;;;17.40;62.90;;;;;;4938686;28;20134;-67
2023/07/28 08:47:05;;;;;;;4.75;2.00;;;17.20;64.30;;;;;;4944363;28;20043;-69
2023/07/28 08:49:36;;;;;;;6.60;2.53;;;17.00;65.10;;;;;;4952538;28;20157;-70
2023/07/28 08:52:04;;;;;;;5.70;2.22;;;16.80;65.80;;;;;;4951221;28;20034;-70
2023/07/28 08:54:32;;;;;;;7.20;1.88;;;16.80;66.10;;;;;;4950846;28;20035;-69
2023/07/28 08:56:59;;;;;;;4.85;2.22;;;16.80;66.00;;;;;;4941501;28;20059;-69
2023/07/28 08:59:29;;;;;;;5.13;2.15;;;16.80;66.30;;;;;;4948380;28;20039;-69
2023/07/28 09:01:59;;;;;;;6.35;2.55;;;16.80;66.00;;;;;;4953141;28;20051;-70
2023/07/28 09:04:26;;;;;;;8.43;2.47;;;16.80;66.00;;;;;;4935288;28;20061;-70
2023/07/28 09:06:54;;;;;;;7.35;3.20;;;16.90;66.20;;;;;;4948085;28;20038;-70
2023/07/28 09:09:24;;;;;;;7.78;2.95;;;16.80;66.30;;;;;;4946310;28;20378;-70
2023/07/28 09:11:53;;;;;;;7.45;2.97;;;16.80;66.70;;;;;;4950537;28;20126;-69
2023/07/28 09:14:25;;;;;;;7.32;3.13;;;16.60;67.00;;;;;;4951137;28;20031;-69
2023/07/28 09:16:53;;;;;;;7.70;3.20;;;16.50;66.90;;;;;;4946237;28;20166;-71
2023/07/28 09:19:22;;;;;;;7.45;2.65;;;16.50;67.50;;;;;;4944093;28;20043;-73
2023/07/28 09:22:02;;;;;;;6.05;2.90;;;16.50;68.20;;;;;;4948016;28;20094;-71
2023/07/28 09:24:36;;;;;;;6.22;3.90;;;16.40;68.40;;;;;;4945481;28;20463;-69
2023/07/28 09:27:04;;;;;;;7.93;3.53;;;16.40;68.20;;;;;;4949734;28;20023;-70
2023/07/28 09:29:31;;;;;;;7.05;3.60;;;16.30;68.50;;;;;;4947122;28;20531;-71
2023/07/28 09:32:06;;;;;;;9.65;5.38;;;16.30;69.20;;;;;;4942160;28;20563;-68
2023/07/28 09:34:33;;;;;;;8.73;5.00;;;16.20;68.90;;;;;;4951413;28;20035;-69
2023/07/28 09:37:01;;;;;;;10.10;4.70;;;16.20;69.30;;;;;;4942777;28;20035;-69
2023/07/28 09:39:29;;;;;;;9.60;3.97;;;16.10;69.60;;;;;;4946388;28;21134;-70
2023/07/28 09:41:59;;;;;;;9.18;3.63;;;16.10;69.50;;;;;;4947326;28;20035;-69
2023/07/28 09:44:27;;;;;;;8.20;3.63;;;16.10;69.50;;;;;;4949909;28;20030;-69
2023/07/28 09:46:56;;;;;;;7.75;3.28;;;16.20;70.00;;;;;;4947730;28;20529;-68
2023/07/28 09:49:48;;;;;;;4.78;2.22;;;16.20;69.40;;;;;;4948717;28;20558;-70
2023/07/28 09:52:18;;;;;;;11.50;2.88;;;16.20;69.20;;;;;;4926261;28;20121;-69
2023/07/28 09:54:49;;;;;;;6.25;2.85;;;16.30;69.20;;;;;;4949715;28;20059;-70
2023/07/28 09:57:21;;;;;;;6.03;2.80;;;16.50;68.40;;;;;;4950883;28;20055;-69
2023/07/28 09:59:50;;;;;;;4.05;2.42;;;16.70;67.80;;;;;;4949619;28;20046;-70
2023/07/28 10:02:18;;;;;;;6.10;2.03;;;16.70;67.60;;;;;;4962477;28;20039;-71
2023/07/28 10:04:45;;;;;;;7.93;2.40;;;16.70;67.50;;;;;;4949887;28;20023;-69
2023/07/28 10:07:13;;;;;;;8.52;2.72;;;16.90;67.20;;;;;;4947831;28;20089;-70
2023/07/28 10:09:41;;;;;;;9.00;2.47;;;17.30;65.30;;;;;;4949918;28;20117;-70
2023/07/28 10:12:19;;;;;;;9.05;2.97;;;17.50;65.00;;;;;;4946920;28;20504;-71
2023/07/28 10:14:46;;;;;;;6.78;2.70;;;17.60;64.60;;;;;;4945995;28;20576;-69
2023/07/28 10:17:18;;;;;;;5.90;2.58;;;17.70;64.30;;;;;;4948299;28;20027;-70
2023/07/28 10:19:45;;;;;;;6.00;2.40;;;17.70;64.00;;;;;;4948609;28;20035;-70
2023/07/28 10:22:13;;;;;;;7.22;2.55;;;17.70;64.20;;;;;;4950015;28;20035;-69
2023/07/28 10:24:55;;;;;;;4.90;2.60;;;17.60;64.40;;;;;;4947610;28;20019;-74
2023/07/28 10:27:44;;;;;;;5.05;3.08;;;17.50;64.70;;;;;;4949889;28;20126;-69
2023/07/28 10:30:13;;;;;;;6.05;2.22;;;17.70;64.20;;;;;;4936510;28;20039;-70
2023/07/28 10:32:43;;;;;;;8.20;2.33;;;17.80;63.90;;;;;;4946231;28;20035;-69
2023/07/28 10:35:13;;;;;;;5.65;2.05;;;17.80;63.90;;;;;;4945409;28;20039;-70
2023/07/28 10:37:45;;;;;;;6.78;2.33;;;17.80;63.80;;;;;;4945604;28;20086;-70
2023/07/28 10:40:38;;;;;;;4.18;1.80;;;17.90;63.80;;;;;;4946673;28;20536;-69
2023/07/28 10:43:06;;;;;;;3.60;1.88;;;17.90;63.60;;;;;;4947749;28;20035;-70
2023/07/28 10:45:34;;;;;;;7.53;1.60;;;17.80;63.80;;;;;;4949460;28;20038;-69
2023/07/28 10:48:03;;;;;;;4.35;2.15;;;17.70;64.30;;;;;;4944154;28;20322;-69
2023/07/28 10:50:31;;;;;;;6.45;3.00;;;17.50;64.80;;;;;;4948939;28;20243;-69
2023/07/28 10:52:59;;;;;;;6.35;2.53;;;17.70;64.40;;;;;;4950552;28;20035;-69
2023/07/28 10:55:27;;;;;;;7.45;2.65;;;17.70;64.30;;;;;;4950993;28;20027;-69
2023/07/28 10:57:58;;;;;;;3.25;1.98;;;17.80;63.80;;;;;;4945729;28;20055;-70
2023/07/28 11:00:25;;;;;;;5.15;2.17;;;17.80;64.00;;;;;;4950282;28;20512;-70
2023/07/28 11:02:54;;;;;;;3.95;1.60;;;17.80;63.90;;;;;;4947389;28;20039;-71
2023/07/28 11:05:24;;;;;;;5.00;1.73;;;17.60;64.60;;;;;;4941012;28;20884;-70
2023/07/28 11:07:57;;;;;;;2.78;1.63;;;17.40;65.50;;;;;;4945281;28;20477;-70
2023/07/28 11:10:26;;;;;;;4.28;2.00;;;17.20;66.90;;;;;;4948091;28;20042;-69
2023/07/28 11:12:54;;;;;;;5.28;1.85;;;17.30;66.30;;;;;;4950541;28;20089;-71
2023/07/28 11:15:22;;;;;;;8.98;3.03;;;17.30;66.30;;;;;;4969134;28;20042;-69
2023/07/28 11:17:51;;;;;;;6.57;2.92;;;17.20;66.90;;;;;;4949003;28;20041;-70
2023/07/28 11:20:23;;;;;;;7.00;3.40;;;17.00;67.40;;;;;;4956938;28;20440;-70
2023/07/28 11:23:03;;;;;;;5.20;3.00;;;17.00;67.70;;;;;;4951940;28;20034;-70
2023/07/28 11:25:31;;;;;;;7.30;3.22;;;17.20;66.90;;;;;;4956709;28;20026;-70
2023/07/28 11:28:05;;;;;;;8.93;3.40;;;17.10;67.40;;;;;;4954510;28;20042;-71
2023/07/28 11:30:37;;;;;;;9.43;4.75;;;16.90;67.80;;;;;;4956536;28;20027;-71
2023/07/28 11:33:04;;;;;;;12.32;5.40;;;16.80;68.20;;;;;;4951758;28;20031;-70
2023/07/28 11:35:32;;;;;;;16.17;6.25;;;16.70;68.70;;;;;;4952752;28;20038;-71
2023/07/28 11:37:59;;;;;;;11.88;6.13;;;16.60;69.20;;;;;;4948737;28;20147;-70
2023/07/28 11:40:27;;;;;;;7.57;4.40;;;16.50;69.90;;;;;;4960627;28;20084;-69
2023/07/28 11:42:57;;;;;;;13.23;4.45;;;16.50;70.70;;;;;;4948445;28;20063;-69
2023/07/28 11:45:25;;;;;;;11.85;5.00;;;16.50;71.90;;;;;;4946224;28;20453;-69
2023/07/28 11:48:04;;;;;;;11.00;5.50;;;16.30;72.00;;;;;;4958045;28;20030;-70
2023/07/28 11:50:41;;;;;;;12.55;6.47;;;16.10;73.40;;;;;;4946632;28;20039;-70
2023/07/28 11:53:11;;;;;;;11.63;6.43;;;15.90;74.10;;;;;;4960751;28;20034;-69
2023/07/28 11:55:39;;;;;;;9.98;5.40;;;15.80;74.80;;;;;;4940064;28;20046;-72
2023/07/28 11:58:07;;;;;;;13.25;5.75;;;15.80;75.50;;;;;;4951537;28;20075;-68
2023/07/28 12:00:37;;;;;;;19.63;5.97;;;15.70;75.60;;;;;;4949968;28;20031;-69
2023/07/28 12:03:06;;;;;;;11.35;5.75;;;15.60;75.50;;;;;;4948171;28;20042;-69
2023/07/28 12:05:34;;;;;;;10.10;5.43;;;15.60;76.00;;;;;;4948029;28;20031;-69
2023/07/28 12:08:05;;;;;;;8.75;5.28;;;15.60;76.60;;;;;;4953676;28;20023;-69
2023/07/28 12:10:32;;;;;;;11.98;4.40;;;15.50;77.00;;;;;;4951205;28;20119;-69
2023/07/28 12:13:06;;;;;;;12.18;4.03;;;15.50;77.20;;;;;;4948985;28;20038;-69
2023/07/28 12:15:35;;;;;;;7.18;4.50;;;15.50;77.20;;;;;;4949414;28;20416;-70
2023/07/28 12:18:15;;;;;;;6.55;4.20;;;15.30;77.30;;;;;;4938396;28;20126;-69
2023/07/28 12:20:48;;;;;;;9.85;4.13;;;15.30;77.60;;;;;;4949240;28;20086;-69
2023/07/28 12:23:20;;;;;;;10.05;4.30;;;15.20;77.70;;;;;;4949708;28;20035;-69
2023/07/28 12:25:48;;;;;;;7.93;4.32;;;15.10;78.30;;;;;;4946877;28;20114;-68
2023/07/28 12:28:15;;;;;;;9.38;4.72;;;15.00;78.90;;;;;;4948863;28;20095;-69
2023/07/28 12:30:43;;;;;;;15.02;5.82;;;15.00;79.00;;;;;;4951226;28;20054;-68
2023/07/28 12:33:11;;;;;;;10.55;5.07;;;15.00;79.50;;;;;;4954846;28;20046;-69
2023/07/28 12:35:38;;;;;;;10.95;6.03;;;14.90;80.40;;;;;;4951176;28;20023;-69
2023/07/28 12:38:07;;;;;;;14.75;8.65;;;14.70;80.70;;;;;;4951401;28;20051;-70
2023/07/28 12:40:35;;;;;;;11.73;6.75;;;14.70;81.10;;;;;;4948168;28;20035;-69
2023/07/28 12:43:04;;;;;;;10.35;5.88;;;14.60;81.70;;;;;;4949802;28;20027;-69
2023/07/28 12:45:32;;;;;;;11.68;6.15;;;14.60;82.40;;;;;;4951603;28;20041;-69
2023/07/28 12:48:00;;;;;;;11.95;6.80;;;14.90;81.80;;;;;;4954045;28;20102;-69
2023/07/28 12:50:27;;;;;;;15.45;6.97;;;15.00;81.10;;;;;;4951441;28;20039;-68
2023/07/28 12:52:55;;;;;;;20.70;13.65;;;14.80;81.40;;;;;;4947838;28;20540;-69